Time;durP1;ratioP1;P1;durP2;ratioP2;P2;SDS_P1;SDS_P2;PMS_P1;PMS_P2;Temp;Humidity;BMP_temperature;BMP_pressure;BME280_temperature;BME280_humidity;BME280_pressure;Samples;Min_cycle;Max_cycle;Signal;HPM_P1;HPM_P2
2022/07/08 00:01:37;;;;;;;13.10;2.90;;;;;;;14.99;74.77;102994.81;5072617;28;20074;-71
2022/07/08 00:04:02;;;;;;;10.82;2.85;;;;;;;14.89;75.36;102991.38;5073866;28;20502;-71
2022/07/08 00:06:28;;;;;;;9.50;2.83;;;;;;;14.86;75.03;102998.41;5074314;28;20024;-71
2022/07/08 00:08:54;;;;;;;9.15;2.30;;;;;;;14.89;75.95;102998.41;5071303;28;20074;-71
2022/07/08 00:11:19;;;;;;;7.63;2.63;;;;;;;14.78;75.67;102987.09;5072769;28;20031;-71
2022/07/08 00:13:45;;;;;;;8.77;2.42;;;;;;;14.77;76.33;102999.34;5073868;28;20379;-71
2022/07/08 00:16:10;;;;;;;9.90;2.38;;;;;;;14.73;75.42;102985.38;5072973;28;20468;-71
2022/07/08 00:18:35;;;;;;;6.65;2.33;;;;;;;14.71;75.34;103007.25;5072884;28;20089;-71
2022/07/08 00:21:00;;;;;;;11.63;2.85;;;;;;;14.71;75.80;103000.28;5072760;28;20044;-71
2022/07/08 00:23:26;;;;;;;8.23;2.22;;;;;;;14.65;76.16;102994.16;5072961;28;20048;-71
2022/07/08 00:25:51;;;;;;;8.38;2.20;;;;;;;14.58;75.10;103001.22;5073746;28;20779;-71
2022/07/08 00:28:16;;;;;;;7.22;2.08;;;;;;;14.51;75.62;102996.88;5074406;28;20107;-71
2022/07/08 00:30:42;;;;;;;8.02;2.35;;;;;;;14.43;75.62;102991.66;5071308;28;20477;-71
2022/07/08 00:33:07;;;;;;;6.78;2.85;;;;;;;14.49;75.38;102999.50;5073888;28;20016;-71
2022/07/08 00:35:32;;;;;;;11.00;3.03;;;;;;;14.51;75.83;103010.00;5072580;28;20060;-71
2022/07/08 00:37:58;;;;;;;8.13;2.40;;;;;;;14.46;76.63;103006.50;5073165;28;20472;-71
2022/07/08 00:40:23;;;;;;;10.60;2.65;;;;;;;14.39;76.00;103003.06;5072733;28;20031;-71
2022/07/08 00:42:48;;;;;;;11.77;2.40;;;;;;;14.41;75.30;103001.28;5073568;28;20113;-71
2022/07/08 00:45:17;;;;;;;11.77;2.70;;;;;;;14.44;77.11;102997.75;5072479;28;20103;-71
2022/07/08 00:47:43;;;;;;;8.20;2.60;;;;;;;14.34;75.81;103002.19;5073324;28;20016;-71
2022/07/08 00:50:10;;;;;;;13.73;2.60;;;;;;;14.24;76.36;103008.34;5071664;28;20116;-71
2022/07/08 00:52:37;;;;;;;9.40;2.60;;;;;;;14.13;77.25;103005.78;5072794;28;20028;-71
2022/07/08 00:55:03;;;;;;;13.57;2.75;;;;;;;13.98;77.94;103004.06;5071818;28;20032;-71
2022/07/08 00:57:28;;;;;;;10.00;2.25;;;;;;;13.92;78.76;103006.72;5073573;28;20403;-71
2022/07/08 00:59:54;;;;;;;10.38;2.90;;;;;;;13.82;79.39;103010.25;5071734;28;20028;-71
2022/07/08 01:02:20;;;;;;;9.73;2.78;;;;;;;13.72;78.50;103012.00;5069930;28;20115;-71
2022/07/08 01:04:45;;;;;;;7.55;2.67;;;;;;;13.66;79.60;103012.03;5071883;28;20134;-71
2022/07/08 01:07:10;;;;;;;9.27;2.60;;;;;;;13.63;79.59;103009.41;5073001;28;20023;-71
2022/07/08 01:09:36;;;;;;;6.78;2.72;;;;;;;13.58;80.24;103024.28;5059906;28;20025;-71
2022/07/08 01:12:02;;;;;;;13.23;3.13;;;;;;;13.47;80.65;103016.44;5071304;28;20438;-71
2022/07/08 01:14:28;;;;;;;9.63;3.10;;;;;;;13.38;80.20;103018.19;5070592;28;20032;-71
2022/07/08 01:16:53;;;;;;;10.00;2.80;;;;;;;13.33;80.49;103013.81;5072688;28;20028;-71
2022/07/08 01:19:19;;;;;;;8.48;2.85;;;;;;;13.22;80.87;103005.06;5072911;28;20077;-71
2022/07/08 01:21:45;;;;;;;9.80;2.85;;;;;;;13.15;81.15;103007.69;5072283;28;20016;-71
2022/07/08 01:24:10;;;;;;;12.77;2.70;;;;;;;13.06;82.00;103001.56;5070341;28;20103;-71
2022/07/08 01:26:35;;;;;;;10.95;2.88;;;;;;;13.02;81.68;103012.03;5071358;28;20428;-71
2022/07/08 01:29:01;;;;;;;9.88;2.72;;;;;;;12.90;82.42;103012.88;5072658;28;20020;-71
2022/07/08 01:31:27;;;;;;;6.60;2.88;;;;;;;12.79;83.19;103007.63;5073146;28;20025;-71
2022/07/08 01:33:52;;;;;;;8.55;2.90;;;;;;;12.71;83.92;103005.88;5071756;28;20128;-71
2022/07/08 01:36:17;;;;;;;7.18;2.90;;;;;;;12.63;84.71;103013.72;5070761;28;20111;-71
2022/07/08 01:38:42;;;;;;;9.85;3.20;;;;;;;12.57;84.87;103014.56;5072713;28;20511;-71
2022/07/08 01:41:08;;;;;;;10.40;3.40;;;;;;;12.52;85.51;103015.41;5072107;28;20036;-71
2022/07/08 01:43:33;;;;;;;11.38;3.55;;;;;;;12.46;86.46;103010.16;5070317;28;20089;-71
2022/07/08 01:45:58;;;;;;;6.90;2.85;;;;;;;12.40;86.63;103014.50;5071194;28;20114;-71
2022/07/08 01:48:24;;;;;;;11.02;2.72;;;;;;;12.37;86.57;103006.66;5072148;28;20085;-71
2022/07/08 01:50:49;;;;;;;7.85;3.15;;;;;;;12.34;86.99;103014.47;5064261;28;20057;-71
2022/07/08 01:53:14;;;;;;;8.55;3.25;;;;;;;12.28;87.05;103005.75;5071617;28;20024;-71
2022/07/08 01:55:40;;;;;;;11.07;3.60;;;;;;;12.19;87.63;103003.94;5064630;28;20047;-71
2022/07/08 01:58:05;;;;;;;9.98;3.03;;;;;;;12.12;88.10;102995.22;5071940;28;20089;-71
2022/07/08 02:00:30;;;;;;;8.40;3.08;;;;;;;12.05;88.83;102998.66;5072563;28;20073;-71
2022/07/08 02:02:56;;;;;;;9.48;2.90;;;;;;;12.02;89.33;103000.41;5069563;28;20026;-71
2022/07/08 02:05:21;;;;;;;13.52;3.80;;;;;;;11.93;89.82;103006.44;5071055;28;20388;-71
2022/07/08 02:07:46;;;;;;;10.88;3.22;;;;;;;11.87;90.48;103006.41;5072266;28;20028;-71
2022/07/08 02:10:12;;;;;;;8.73;3.17;;;;;;;11.85;90.58;103006.41;5055925;28;20051;-71
2022/07/08 02:12:37;;;;;;;10.45;3.83;;;;;;;11.83;90.86;103002.88;5061046;28;20556;-71
2022/07/08 02:15:06;;;;;;;9.35;3.30;;;;;;;11.83;90.64;103015.06;5071841;28;20036;-71
2022/07/08 02:17:41;;;;;;;7.55;3.22;;;;;;;11.85;90.78;103014.25;5071599;28;20021;-71
2022/07/08 02:20:10;;;;;;;9.65;3.40;;;;;;;11.89;90.76;103015.13;5071773;28;20051;-71
2022/07/08 02:22:36;;;;;;;10.18;3.10;;;;;;;11.93;90.68;103009.97;5063309;28;20025;-71
2022/07/08 02:25:02;;;;;;;7.55;2.88;;;;;;;11.99;90.66;103009.09;5071105;28;20054;-71
2022/07/08 02:27:27;;;;;;;10.38;3.10;;;;;;;12.01;90.90;103015.22;5072473;28;20020;-71
2022/07/08 02:29:52;;;;;;;5.72;2.85;;;;;;;12.05;90.95;103008.25;5071012;28;20040;-71
2022/07/08 02:32:17;;;;;;;9.15;2.80;;;;;;;12.06;90.98;103010.88;5068424;28;20021;-71
2022/07/08 02:34:44;;;;;;;8.63;3.53;;;;;;;12.07;90.87;103017.88;5070308;28;20029;-71
2022/07/08 02:37:09;;;;;;;9.55;3.13;;;;;;;12.12;90.98;103020.50;5069289;28;20028;-71
2022/07/08 02:39:34;;;;;;;7.32;3.03;;;;;;;12.18;90.81;103015.28;5060114;28;20031;-71
2022/07/08 02:42:00;;;;;;;5.90;2.65;;;;;;;12.15;90.46;103002.19;5054858;28;20032;-71
2022/07/08 02:44:25;;;;;;;8.88;2.88;;;;;;;12.19;90.54;103009.19;5054773;28;20025;-71
2022/07/08 02:46:51;;;;;;;11.68;3.22;;;;;;;12.19;90.23;103012.66;5066894;28;20051;-71
2022/07/08 02:49:16;;;;;;;12.15;3.30;;;;;;;12.21;90.88;103006.59;5057624;28;20029;-71
2022/07/08 02:51:41;;;;;;;7.38;3.05;;;;;;;12.21;90.53;103009.22;5069277;28;20032;-71
2022/07/08 02:54:07;;;;;;;10.80;3.38;;;;;;;12.17;90.40;103009.19;5071107;28;20039;-71
2022/07/08 02:56:33;;;;;;;9.50;3.45;;;;;;;12.15;90.25;103013.53;5063847;28;20531;-71
2022/07/08 02:59:00;;;;;;;10.10;3.70;;;;;;;12.13;90.07;103014.38;5062377;28;20036;-71
2022/07/08 03:01:25;;;;;;;7.75;3.33;;;;;;;12.09;90.12;103017.84;5068111;28;20029;-71
2022/07/08 03:03:50;;;;;;;7.85;3.13;;;;;;;12.02;90.24;103014.34;5071181;28;20024;-71
2022/07/08 03:06:16;;;;;;;7.70;2.97;;;;;;;12.00;91.00;103013.47;5064881;28;20128;-71
2022/07/08 03:08:41;;;;;;;7.10;2.92;;;;;;;11.98;91.16;103017.81;5071386;28;20028;-71
2022/07/08 03:11:06;;;;;;;10.82;3.15;;;;;;;11.95;91.73;103015.19;5069483;28;20029;-71
2022/07/08 03:13:32;;;;;;;9.23;3.83;;;;;;;11.93;91.65;103023.03;5065607;28;20021;-71
2022/07/08 03:15:58;;;;;;;6.18;2.58;;;;;;;11.96;91.92;103027.38;5061395;28;20059;-71
2022/07/08 03:18:24;;;;;;;8.25;3.00;;;;;;;11.96;92.36;103032.59;5071396;28;20380;-71
2022/07/08 03:20:49;;;;;;;9.88;3.38;;;;;;;11.96;92.04;103022.16;5069476;28;20021;-71
2022/07/08 03:23:14;;;;;;;8.93;3.05;;;;;;;12.04;91.76;103025.69;5070492;28;20496;-71
2022/07/08 03:25:39;;;;;;;7.95;3.25;;;;;;;12.08;91.63;103018.72;5070316;28;20468;-71
2022/07/08 03:28:05;;;;;;;6.72;2.78;;;;;;;12.05;91.75;103016.97;5070484;28;20036;-71
2022/07/08 03:30:30;;;;;;;9.90;3.15;;;;;;;12.01;91.67;103022.19;5071302;28;20025;-71
2022/07/08 03:32:56;;;;;;;9.48;2.95;;;;;;;11.93;92.09;103020.41;5068450;28;20033;-71
2022/07/08 03:35:21;;;;;;;9.50;3.17;;;;;;;11.87;91.66;103023.00;5071094;28;20063;-71
2022/07/08 03:37:47;;;;;;;9.63;3.28;;;;;;;11.78;91.54;103025.50;5068666;28;20031;-71
2022/07/08 03:42:59;;;;;;;9.98;3.55;;;;;;;11.66;91.91;103025.41;5068244;28;20511;-71
2022/07/08 03:45:24;;;;;;;7.88;2.95;;;;;;;11.65;91.77;103034.13;5071123;28;20032;-71
2022/07/08 03:47:49;;;;;;;9.05;3.20;;;;;;;11.62;92.26;103032.34;5063011;28;20124;-71
2022/07/08 03:50:15;;;;;;;7.13;2.95;;;;;;;11.52;92.28;103024.44;5063381;28;20469;-70
2022/07/08 03:52:40;;;;;;;9.95;3.38;;;;;;;11.51;92.49;103025.28;5069802;28;20062;-71
2022/07/08 03:55:06;;;;;;;7.78;3.10;;;;;;;11.46;93.11;103028.75;5070406;28;20037;-71
2022/07/08 03:57:32;;;;;;;8.00;3.28;;;;;;;11.42;93.22;103027.00;5069658;28;20056;-71
2022/07/08 03:59:57;;;;;;;6.95;3.30;;;;;;;11.42;93.23;103031.34;5069799;28;20029;-70
2022/07/08 04:02:23;;;;;;;10.52;3.65;;;;;;;11.46;93.50;103025.28;5068788;28;20043;-71
2022/07/08 04:04:48;;;;;;;7.45;3.33;;;;;;;11.42;93.34;103023.50;5070342;28;20020;-71
2022/07/08 04:07:13;;;;;;;8.00;4.13;;;;;;;11.40;93.64;103031.31;5064774;28;20033;-71
2022/07/08 04:09:38;;;;;;;8.43;4.43;;;;;;;11.44;93.85;103030.50;5069849;28;20082;-71
2022/07/08 04:12:05;;;;;;;12.45;3.80;;;;;;;11.49;93.86;103034.00;5074032;28;20038;-71
2022/07/08 04:14:30;;;;;;;16.17;4.40;;;;;;;11.51;93.96;103036.66;5074263;28;20083;-71
2022/07/08 04:16:56;;;;;;;11.32;3.92;;;;;;;11.52;93.93;103027.94;5070602;28;20040;-71
2022/07/08 04:19:21;;;;;;;9.70;3.72;;;;;;;11.57;93.64;103030.56;5072116;28;20029;-71
2022/07/08 04:21:46;;;;;;;9.75;4.38;;;;;;;11.57;93.97;103035.78;5072896;28;20476;-71
2022/07/08 04:24:12;;;;;;;8.52;4.00;;;;;;;11.61;93.81;103032.38;5073749;28;20388;-71
2022/07/08 04:26:37;;;;;;;8.98;3.80;;;;;;;11.63;93.95;103026.25;5072010;28;20055;-71
2022/07/08 04:29:03;;;;;;;9.05;3.75;;;;;;;11.65;93.71;103032.38;5071190;28;20106;-71
2022/07/08 04:31:28;;;;;;;13.75;4.05;;;;;;;11.65;93.85;103019.31;5073615;28;20043;-71
2022/07/08 04:33:54;;;;;;;9.25;4.25;;;;;;;11.72;93.57;103030.69;5073770;28;20063;-71
2022/07/08 04:36:20;;;;;;;11.85;4.65;;;;;;;11.72;94.06;103041.13;5073924;28;20101;-71
2022/07/08 04:38:45;;;;;;;8.43;4.30;;;;;;;11.76;93.71;103047.25;5069548;28;20021;-71
2022/07/08 04:41:11;;;;;;;13.25;4.95;;;;;;;11.81;93.42;103043.81;5074129;28;20032;-71
2022/07/08 04:43:36;;;;;;;12.65;4.82;;;;;;;11.84;93.39;103056.94;5072995;28;20036;-71
2022/07/08 04:46:01;;;;;;;11.40;4.45;;;;;;;11.92;93.05;103057.84;5073732;28;20025;-71
2022/07/08 04:48:26;;;;;;;7.00;4.65;;;;;;;11.96;93.37;103061.34;5062106;28;20377;-71
2022/07/08 04:50:52;;;;;;;12.70;5.05;;;;;;;11.99;93.24;103063.13;5069927;28;20074;-71
2022/07/08 04:53:17;;;;;;;10.13;4.93;;;;;;;12.05;92.71;103061.41;5073728;28;20043;-71
2022/07/08 04:55:42;;;;;;;10.43;5.10;;;;;;;12.09;93.01;103064.91;5071520;28;20036;-71
2022/07/08 04:58:08;;;;;;;10.68;5.40;;;;;;;12.15;92.61;103064.94;5071035;28;20043;-71
2022/07/08 05:00:33;;;;;;;11.73;5.82;;;;;;;12.19;92.30;103064.97;5070323;28;20032;-71
2022/07/08 05:02:59;;;;;;;9.77;5.22;;;;;;;12.25;92.24;103065.88;5073476;28;20108;-71
2022/07/08 05:05:26;;;;;;;16.27;5.57;;;;;;;12.31;92.30;103058.94;5064300;28;20499;-71
2022/07/08 05:07:51;;;;;;;12.77;5.45;;;;;;;12.38;92.29;103065.94;5068942;28;20027;-71
2022/07/08 05:10:18;;;;;;;8.60;4.97;;;;;;;12.45;90.91;103066.84;5073635;28;20024;-70
2022/07/08 05:12:44;;;;;;;14.20;5.97;;;;;;;12.47;90.87;103062.50;5072314;28;20039;-71
2022/07/08 05:15:10;;;;;;;11.65;5.35;;;;;;;12.56;90.57;103065.16;5069754;28;20045;-70
2022/07/08 05:17:36;;;;;;;10.73;4.53;;;;;;;12.62;91.27;103069.50;5065738;28;20055;-71
2022/07/08 05:20:01;;;;;;;8.13;4.22;;;;;;;12.71;90.88;103064.31;5072419;28;20094;-70
2022/07/08 05:22:26;;;;;;;13.80;4.35;;;;;;;12.77;90.92;103072.19;5072309;28;20025;-71
2022/07/08 05:24:52;;;;;;;11.30;4.22;;;;;;;12.89;90.18;103071.34;5072452;28;20028;-71
2022/07/08 05:27:17;;;;;;;9.75;4.07;;;;;;;12.96;89.68;103077.47;5070131;28;20070;-71
2022/07/08 05:29:42;;;;;;;11.82;4.80;;;;;;;13.06;88.91;103092.34;5068396;28;20106;-71
2022/07/08 05:32:07;;;;;;;8.65;4.10;;;;;;;13.17;89.32;103094.97;5072988;28;20123;-71
2022/07/08 05:34:33;;;;;;;13.50;4.53;;;;;;;13.22;88.97;103090.63;5072029;28;20028;-71
2022/07/08 05:36:58;;;;;;;9.35;4.13;;;;;;;13.26;87.53;103072.31;5071270;28;20082;-71
2022/07/08 05:39:24;;;;;;;12.70;3.90;;;;;;;13.38;87.78;103088.94;5069615;28;20043;-71
2022/07/08 05:41:49;;;;;;;11.35;3.47;;;;;;;13.41;88.47;103089.81;5070716;28;20054;-71
2022/07/08 05:44:14;;;;;;;10.35;3.63;;;;;;;13.47;87.13;103084.56;5072793;28;20030;-71
2022/07/08 05:46:40;;;;;;;10.48;3.80;;;;;;;13.55;85.34;103087.19;5070963;28;20028;-71
2022/07/08 05:49:05;;;;;;;12.18;3.97;;;;;;;13.63;85.51;103095.91;5062436;28;20468;-71
2022/07/08 05:51:30;;;;;;;4.97;3.50;;;;;;;13.70;84.69;103097.66;5071927;28;20108;-71
2022/07/08 05:53:55;;;;;;;8.68;4.13;;;;;;;13.77;86.68;103106.41;5071318;28;20036;-71
2022/07/08 05:56:22;;;;;;;11.70;3.92;;;;;;;13.82;86.13;103096.75;5071214;28;20028;-71
2022/07/08 05:58:47;;;;;;;10.68;4.32;;;;;;;13.90;83.82;103102.03;5069761;28;20149;-71
2022/07/08 06:01:13;;;;;;;13.18;4.38;;;;;;;13.94;84.71;103106.38;5070940;28;20412;-71
2022/07/08 06:03:38;;;;;;;8.38;3.58;;;;;;;14.00;85.12;103102.00;5072029;28;20024;-71
2022/07/08 06:06:03;;;;;;;12.68;4.03;;;;;;;14.10;84.25;103107.22;5070229;28;20032;-71
2022/07/08 06:08:29;;;;;;;13.80;4.35;;;;;;;14.09;85.38;103101.09;5069455;28;20093;-71
2022/07/08 06:10:56;;;;;;;9.80;3.22;;;;;;;14.18;85.04;103111.56;5067819;28;20032;-71
2022/07/08 06:13:21;;;;;;;12.32;3.78;;;;;;;14.23;85.43;103112.44;5072252;28;20036;-71
2022/07/08 06:15:47;;;;;;;12.32;3.63;;;;;;;14.31;83.47;103114.16;5070185;28;20059;-71
2022/07/08 06:18:12;;;;;;;13.20;3.40;;;;;;;14.34;82.34;103108.91;5072131;28;20074;-71
2022/07/08 06:20:37;;;;;;;15.95;3.28;;;;;;;14.38;82.91;103114.13;5069676;28;20036;-71
2022/07/08 06:23:03;;;;;;;5.93;2.13;;;;;;;14.44;82.19;103114.09;5070193;28;20050;-71
2022/07/08 06:25:28;;;;;;;8.82;2.85;;;;;;;14.50;80.93;103115.84;5070325;28;20047;-71
2022/07/08 06:27:53;;;;;;;7.57;2.42;;;;;;;14.55;79.99;103115.84;5071030;28;20048;-71
2022/07/08 06:30:19;;;;;;;13.35;2.10;;;;;;;14.61;80.20;103115.81;5069966;28;20031;-71
2022/07/08 06:32:44;;;;;;;6.65;1.90;;;;;;;14.68;80.31;103110.56;5071370;28;20035;-71
2022/07/08 06:35:10;;;;;;;11.95;2.40;;;;;;;14.71;80.54;103113.19;5070974;28;20417;-71
2022/07/08 06:37:36;;;;;;;13.38;2.75;;;;;;;14.77;79.77;103117.50;5069076;28;20028;-71
2022/07/08 06:40:02;;;;;;;10.15;2.28;;;;;;;14.83;79.69;103119.25;5063257;28;20029;-71
2022/07/08 06:42:27;;;;;;;6.22;2.30;;;;;;;14.88;79.67;103110.47;5066045;28;20093;-71
2022/07/08 06:44:53;;;;;;;11.02;2.58;;;;;;;14.98;80.68;103103.41;5075567;28;20472;-71
2022/07/08 06:47:18;;;;;;;9.75;2.15;;;;;;;15.09;79.97;103112.06;5071022;28;20078;-70
2022/07/08 06:49:43;;;;;;;8.65;2.17;;;;;;;15.22;80.47;103118.13;5062469;28;20073;-71
2022/07/08 06:52:08;;;;;;;10.10;2.50;;;;;;;15.27;79.12;103111.09;5067438;28;20029;-71
2022/07/08 06:54:36;;;;;;;8.38;2.00;;;;;;;15.35;77.86;103111.91;5070165;28;20033;-71
2022/07/08 06:57:09;;;;;;;13.18;2.80;;;;;;;15.43;78.65;103114.47;5070042;28;20039;-73
2022/07/08 06:59:35;;;;;;;9.75;2.40;;;;;;;15.43;77.26;103123.25;5070499;28;20032;-71
2022/07/08 07:02:01;;;;;;;7.63;2.17;;;;;;;15.28;78.25;103112.84;5071491;28;20107;-71
2022/07/08 07:04:27;;;;;;;13.23;2.50;;;;;;;15.26;77.46;103125.09;5069650;28;20086;-71
2022/07/08 07:06:52;;;;;;;11.88;2.05;;;;;;;15.24;78.67;103113.75;5066418;28;20391;-71
2022/07/08 07:09:18;;;;;;;7.43;1.77;;;;;;;15.16;78.20;103124.28;5071051;28;20484;-73
2022/07/08 07:11:43;;;;;;;8.23;1.98;;;;;;;15.06;77.64;103130.47;5070827;28;20029;-71
2022/07/08 07:14:08;;;;;;;11.07;2.30;;;;;;;15.12;76.66;103133.06;5060954;28;20040;-71
2022/07/08 07:16:34;;;;;;;10.38;2.42;;;;;;;15.23;77.82;103118.09;5070033;28;20024;-71
2022/07/08 07:18:59;;;;;;;5.90;2.10;;;;;;;15.37;76.76;103119.78;5070942;28;20028;-71
2022/07/08 07:21:24;;;;;;;13.07;2.67;;;;;;;15.51;76.96;103117.91;5067773;28;20455;-71
2022/07/08 07:23:49;;;;;;;6.93;1.88;;;;;;;15.67;74.91;103119.56;5069578;28;20550;-71
2022/07/08 07:26:15;;;;;;;7.10;2.13;;;;;;;15.71;74.98;103119.53;5070496;28;20033;-75
2022/07/08 07:28:40;;;;;;;5.28;2.10;;;;;;;15.79;75.33;103123.81;5071438;28;20411;-75
2022/07/08 07:31:06;;;;;;;9.40;2.33;;;;;;;15.85;74.65;103123.78;5069172;28;20040;-75
2022/07/08 07:33:32;;;;;;;8.82;1.95;;;;;;;15.98;76.11;103116.66;5063903;28;20031;-75
2022/07/08 07:35:57;;;;;;;13.40;2.60;;;;;;;16.12;75.33;103117.41;5069507;28;20029;-75
2022/07/08 07:38:22;;;;;;;10.48;2.22;;;;;;;16.23;71.26;103121.66;5071344;28;20052;-75
2022/07/08 07:40:48;;;;;;;6.80;1.88;;;;;;;16.30;72.53;103118.94;5069418;28;20016;-75
2022/07/08 07:43:13;;;;;;;7.38;2.15;;;;;;;16.31;71.11;103114.53;5069486;28;20043;-75
2022/07/08 07:45:38;;;;;;;12.35;2.15;;;;;;;16.39;71.77;103116.22;5064236;28;20090;-76
2022/07/08 07:48:04;;;;;;;8.75;1.90;;;;;;;16.50;72.63;103121.34;5065427;28;20032;-75
2022/07/08 07:50:29;;;;;;;10.30;2.40;;;;;;;16.65;71.60;103111.53;5066603;28;20520;-75
2022/07/08 07:52:54;;;;;;;6.43;2.10;;;;;;;16.75;70.86;103114.03;5070255;28;20489;-75
2022/07/08 07:55:20;;;;;;;8.88;1.70;;;;;;;16.76;71.75;103104.38;5073022;28;20396;-75
2022/07/08 07:57:46;;;;;;;5.80;1.90;;;;;;;16.91;71.38;103109.44;5072107;28;20048;-75
2022/07/08 08:00:12;;;;;;;5.82;2.30;;;;;;;16.90;68.94;103110.31;5071938;28;20029;-75
2022/07/08 08:02:38;;;;;;;7.40;1.90;;;;;;;16.86;69.04;103116.53;5085350;28;20020;-75
2022/07/08 08:05:04;;;;;;;10.82;1.95;;;;;;;16.81;69.37;103106.06;5075730;28;20034;-75
2022/07/08 08:07:30;;;;;;;10.32;2.58;;;;;;;16.84;67.71;103107.78;5069678;28;20025;-75
2022/07/08 08:09:56;;;;;;;7.68;2.28;;;;;;;16.87;69.41;103112.97;5067949;28;20052;-75
2022/07/08 08:12:21;;;;;;;7.10;2.03;;;;;;;16.85;67.84;103120.06;5067442;28;20060;-75
2022/07/08 08:14:46;;;;;;;6.80;1.90;;;;;;;16.96;67.90;103120.78;5066008;28;20129;-75
2022/07/08 08:17:12;;;;;;;7.55;2.05;;;;;;;17.12;70.51;103112.66;5073624;28;20028;-76
2022/07/08 08:19:37;;;;;;;8.60;2.00;;;;;;;17.30;68.91;103122.94;5068414;28;20021;-76
2022/07/08 08:22:02;;;;;;;8.18;2.20;;;;;;;17.41;67.72;103122.75;5072212;28;20408;-76
2022/07/08 08:24:28;;;;;;;10.85;2.38;;;;;;;17.56;67.84;103122.50;5060530;28;20048;-76
2022/07/08 08:26:53;;;;;;;9.32;2.35;;;;;;;17.59;67.74;103124.19;5073951;28;20464;-75
2022/07/08 08:29:18;;;;;;;10.88;2.58;;;;;;;17.55;66.91;103129.53;5072748;28;20041;-76
2022/07/08 08:31:43;;;;;;;6.38;2.33;;;;;;;17.54;66.60;103119.03;5073566;28;20103;-76
2022/07/08 08:34:09;;;;;;;11.13;2.15;;;;;;;17.55;66.98;103118.97;5074218;28;20036;-76
2022/07/08 08:36:34;;;;;;;5.72;2.10;;;;;;;17.67;69.02;103127.59;5071963;28;20024;-75
2022/07/08 08:39:00;;;;;;;6.22;2.10;;;;;;;17.74;64.33;103127.47;5066132;28;20043;-75
2022/07/08 08:41:26;;;;;;;5.30;1.92;;;;;;;17.85;66.13;103129.94;5073217;28;20032;-76
2022/07/08 08:43:51;;;;;;;10.15;2.30;;;;;;;17.87;66.33;103122.88;5072131;28;20397;-76
2022/07/08 08:46:23;;;;;;;9.35;2.13;;;;;;;17.92;68.12;103121.03;5073405;28;20024;-75
2022/07/08 08:48:49;;;;;;;8.27;2.13;;;;;;;17.96;67.74;103122.72;5061925;28;20055;-77
2022/07/08 08:51:20;;;;;;;8.93;2.60;;;;;;;18.10;66.43;103113.66;5068111;28;20487;-75
2022/07/08 08:53:46;;;;;;;5.85;2.45;;;;;;;18.16;65.37;103122.34;5066773;28;20107;-75
2022/07/08 08:56:13;;;;;;;7.93;1.80;;;;;;;18.27;64.88;103113.34;5072983;28;20074;-75
2022/07/08 08:58:39;;;;;;;8.55;2.10;;;;;;;18.32;62.32;103109.72;5072521;28;20110;-70
2022/07/08 09:01:08;;;;;;;8.48;2.08;;;;;;;18.42;61.51;103107.75;5073474;28;20017;-71
2022/07/08 09:03:37;;;;;;;4.10;1.70;;;;;;;18.54;64.11;103107.50;5074818;28;20059;-71
2022/07/08 09:06:03;;;;;;;7.53;2.00;;;;;;;18.56;62.83;103102.19;5071610;28;20539;-71
2022/07/08 09:08:29;;;;;;;7.70;2.00;;;;;;;18.66;60.57;103093.16;5073839;28;20024;-71
2022/07/08 09:10:54;;;;;;;8.82;2.03;;;;;;;18.77;60.75;103096.47;5072286;28;20025;-70
2022/07/08 09:13:23;;;;;;;7.25;2.30;;;;;;;18.84;59.31;103100.72;5073455;28;20024;-70
2022/07/08 09:15:50;;;;;;;8.02;2.00;;;;;;;18.95;61.19;103103.09;5072825;28;20392;-71
2022/07/08 09:18:20;;;;;;;8.57;2.13;;;;;;;19.06;61.55;103101.06;5072893;28;20025;-70
2022/07/08 09:20:50;;;;;;;9.18;2.63;;;;;;;19.14;60.38;103092.97;5072492;28;20044;-71
2022/07/08 09:23:17;;;;;;;13.18;2.35;;;;;;;19.20;60.26;103100.78;5073454;28;20024;-70
2022/07/08 09:25:48;;;;;;;5.97;2.47;;;;;;;19.16;60.01;103099.97;5072437;28;20036;-70
2022/07/08 09:28:16;;;;;;;8.70;2.38;;;;;;;19.28;60.00;103098.78;5073198;28;20082;-70
2022/07/08 09:30:44;;;;;;;14.02;3.03;;;;;;;19.63;61.10;103111.19;5072882;28;20477;-71
2022/07/08 09:33:11;;;;;;;10.38;2.28;;;;;;;19.82;60.11;103093.06;5072297;28;20020;-71
2022/07/08 09:35:40;;;;;;;7.55;2.25;;;;;;;19.94;59.70;103096.28;5072955;28;20025;-71
2022/07/08 09:38:07;;;;;;;8.10;2.35;;;;;;;20.01;58.86;103097.84;5072929;28;20035;-71
2022/07/08 09:40:33;;;;;;;10.13;2.95;;;;;;;20.12;59.09;103098.41;5072110;28;20104;-71
2022/07/08 09:43:11;;;;;;;6.57;2.35;;;;;;;20.06;59.63;103099.44;5072695;28;20029;-71
2022/07/08 09:45:36;;;;;;;6.93;2.17;;;;;;;19.88;56.63;103092.91;5072424;28;20023;-71
2022/07/08 09:48:03;;;;;;;6.28;2.78;;;;;;;19.79;57.96;103097.56;5063772;28;20025;-71
2022/07/08 09:50:40;;;;;;;10.15;2.72;;;;;;;19.89;58.15;103093.75;5067088;28;20036;-71
2022/07/08 09:53:13;;;;;;;6.93;2.35;;;;;;;20.10;58.32;103092.28;5059460;28;20024;-71
2022/07/08 09:55:40;;;;;;;8.85;2.60;;;;;;;20.40;58.87;103097.63;5071983;28;20067;-71
2022/07/08 09:58:06;;;;;;;8.43;1.85;;;;;;;20.67;59.08;103096.84;5072093;28;20116;-71
2022/07/08 10:00:31;;;;;;;9.88;2.10;;;;;;;21.16;58.44;103082.06;5072095;28;20161;-71
2022/07/08 10:02:57;;;;;;;9.63;2.20;;;;;;;21.53;57.67;103088.81;5071427;28;20044;-71
2022/07/08 10:05:23;;;;;;;6.30;2.22;;;;;;;21.78;57.05;103087.94;5070890;28;20028;-71
2022/07/08 10:07:48;;;;;;;7.72;1.95;;;;;;;22.04;54.48;103098.53;5061203;28;20024;-71
2022/07/08 10:10:13;;;;;;;10.73;2.10;;;;;;;22.09;53.30;103091.25;5061441;28;20036;-76
2022/07/08 10:12:39;;;;;;;8.20;2.15;;;;;;;22.12;53.56;103106.22;5071896;28;20393;-76
2022/07/08 10:15:06;;;;;;;10.02;2.47;;;;;;;22.16;53.67;103092.78;5070960;28;20043;-76
2022/07/08 10:17:40;;;;;;;6.45;2.10;;;;;;;22.36;54.35;103092.03;5072313;28;20025;-76
2022/07/08 10:20:06;;;;;;;4.95;1.83;;;;;;;22.51;52.31;103097.72;5070369;28;20024;-76
2022/07/08 10:22:33;;;;;;;7.75;2.20;;;;;;;22.70;51.34;103097.88;5071658;28;20029;-76
2022/07/08 10:25:02;;;;;;;4.68;1.80;;;;;;;22.68;53.78;103105.91;5067125;28;20032;-76
2022/07/08 10:27:27;;;;;;;6.00;1.70;;;;;;;22.60;51.83;103100.91;5074892;28;20055;-76
2022/07/08 10:30:12;;;;;;;5.03;1.83;;;;;;;22.72;54.16;103093.34;5068963;28;20036;-76
2022/07/08 10:32:37;;;;;;;7.60;2.50;;;;;;;22.65;53.43;103093.59;5070016;28;20464;-77
2022/07/08 10:35:13;;;;;;;6.05;2.35;;;;;;;22.51;53.66;103095.06;5071069;28;20028;-76
2022/07/08 10:37:57;;;;;;;7.05;2.38;;;;;;;22.52;55.62;103089.66;5063582;28;20037;-76
2022/07/08 10:40:38;;;;;;;8.85;2.33;;;;;;;22.50;53.43;103088.88;5069327;28;20028;-76
2022/07/08 10:43:18;;;;;;;7.35;2.15;;;;;;;22.37;54.14;103096.47;5059976;28;20036;-76
2022/07/08 10:46:09;;;;;;;7.28;2.25;;;;;;;22.23;52.84;103087.25;5057091;28;20036;-77
2022/07/08 10:48:41;;;;;;;5.20;2.00;;;;;;;22.24;56.12;103095.19;5058737;28;20469;-75
2022/07/08 10:51:29;;;;;;;6.63;2.22;;;;;;;22.32;51.68;103095.75;5068196;28;20032;-76
2022/07/08 10:53:59;;;;;;;6.53;2.22;;;;;;;22.22;53.69;103083.72;5062211;28;20464;-76
2022/07/08 10:56:56;;;;;;;7.25;2.17;;;;;;;22.43;53.68;103079.38;5066968;28;20019;-76
2022/07/08 10:59:22;;;;;;;5.38;2.15;;;;;;;22.62;53.55;103091.03;5070209;28;20518;-76
2022/07/08 11:02:16;;;;;;;5.55;2.00;;;;;;;22.34;51.79;103099.22;5067614;28;20035;-76
2022/07/08 11:04:44;;;;;;;7.90;2.00;;;;;;;22.35;54.13;103086.81;5069435;28;20036;-76
2022/07/08 11:07:20;;;;;;;7.43;2.30;;;;;;;22.42;52.98;103080.31;5063154;28;20036;-76
2022/07/08 11:10:08;;;;;;;5.80;2.25;;;;;;;22.26;54.69;103092.44;5070130;28;20025;-77
2022/07/08 11:12:34;;;;;;;7.32;1.92;;;;;;;22.13;55.54;103079.59;5066821;28;20046;-76
2022/07/08 11:15:01;;;;;;;9.15;2.08;;;;;;;22.40;54.66;103069.75;5070708;28;20071;-77
2022/07/08 11:17:28;;;;;;;8.93;2.28;;;;;;;22.77;52.96;103086.94;5064760;28;20025;-77
2022/07/08 11:19:56;;;;;;;6.97;1.90;;;;;;;23.01;51.63;103077.13;5068193;28;20104;-77
2022/07/08 11:22:23;;;;;;;6.10;1.70;;;;;;;23.34;53.41;103079.31;5073406;28;20040;-77